sensor_id;sensor_type;location;lat;lon;timestamp;pressure;altitude;pressure_sealevel;temperature;humidity
55914;BME280;58179;48.776;9.124;2023-01-29T00:01:10;98407.75;;;-0.62;100.00
55914;BME280;58179;48.776;9.124;2023-01-29T00:03:37;98405.97;;;-0.61;100.00
55914;BME280;58179;48.776;9.124;2023-01-29T00:06:04;98405.44;;;-0.65;100.00
55914;BME280;58179;48.776;9.124;2023-01-29T00:08:32;98414.22;;;-0.66;100.00
55914;BME280;58179;48.776;9.124;2023-01-29T00:11:00;98407.38;;;-0.67;100.00
55914;BME280;58179;48.776;9.124;2023-01-29T00:13:27;98405.91;;;-0.69;100.00
55914;BME280;58179;48.776;9.124;2023-01-29T00:15:54;98410.75;;;-0.74;100.00
55914;BME280;58179;48.776;9.124;2023-01-29T00:18:20;98412.72;;;-0.76;100.00
55914;BME280;58179;48.776;9.124;2023-01-29T00:20:48;98411.88;;;-0.77;100.00
55914;BME280;58179;48.776;9.124;2023-01-29T00:23:13;98407.31;;;-0.75;100.00
55914;BME280;58179;48.776;9.124;2023-01-29T00:25:40;98405.25;;;-0.71;100.00
55914;BME280;58179;48.776;9.124;2023-01-29T00:28:06;98413.06;;;-0.71;100.00
55914;BME280;58179;48.776;9.124;2023-01-29T00:30:32;98403.47;;;-0.71;100.00
55914;BME280;58179;48.776;9.124;2023-01-29T00:32:57;98417.94;;;-0.68;100.00
55914;BME280;58179;48.776;9.124;2023-01-29T00:35:23;98409.34;;;-0.69;100.00
55914;BME280;58179;48.776;9.124;2023-01-29T00:37:51;98407.66;;;-0.78;100.00
55914;BME280;58179;48.776;9.124;2023-01-29T00:40:17;98402.47;;;-0.78;100.00
55914;BME280;58179;48.776;9.124;2023-01-29T00:42:43;98398.22;;;-0.79;100.00
55914;BME280;58179;48.776;9.124;2023-01-29T00:45:28;98399.19;;;-0.80;100.00
55914;BME280;58179;48.776;9.124;2023-01-29T00:47:54;98401.63;;;-0.79;100.00
55914;BME280;58179;48.776;9.124;2023-01-29T00:50:20;98404.09;;;-0.77;100.00
55914;BME280;58179;48.776;9.124;2023-01-29T00:52:46;98402.94;;;-0.74;100.00
55914;BME280;58179;48.776;9.124;2023-01-29T00:55:15;98407.03;;;-0.72;100.00
55914;BME280;58179;48.776;9.124;2023-01-29T00:57:41;98405.25;;;-0.71;100.00
55914;BME280;58179;48.776;9.124;2023-01-29T01:00:11;98400.06;;;-0.71;100.00
55914;BME280;58179;48.776;9.124;2023-01-29T01:02:37;98404.94;;;-0.68;100.00
55914;BME280;58179;48.776;9.124;2023-01-29T01:05:22;98405.78;;;-0.68;100.00
55914;BME280;58179;48.776;9.124;2023-01-29T01:07:51;98400.72;;;-0.69;100.00
55914;BME280;58179;48.776;9.124;2023-01-29T01:10:22;98401.69;;;-0.70;100.00
55914;BME280;58179;48.776;9.124;2023-01-29T01:12:53;98399.22;;;-0.72;100.00
55914;BME280;58179;48.776;9.124;2023-01-29T01:15:21;98397.44;;;-0.71;100.00
55914;BME280;58179;48.776;9.124;2023-01-29T01:17:51;98400.88;;;-0.71;100.00
55914;BME280;58179;48.776;9.124;2023-01-29T01:20:18;98405.09;;;-0.70;100.00
55914;BME280;58179;48.776;9.124;2023-01-29T01:22:44;98404.28;;;-0.70;100.00
55914;BME280;58179;48.776;9.124;2023-01-29T01:25:09;98404.94;;;-0.68;100.00
55914;BME280;58179;48.776;9.124;2023-01-29T01:27:37;98400.06;;;-0.71;100.00
55914;BME280;58179;48.776;9.124;2023-01-29T01:30:09;98389.81;;;-0.73;100.00
55914;BME280;58179;48.776;9.124;2023-01-29T01:32:35;98391.72;;;-0.75;100.00
55914;BME280;58179;48.776;9.124;2023-01-29T01:35:01;98396.16;;;-0.75;100.00
55914;BME280;58179;48.776;9.124;2023-01-29T01:37:27;98395.34;;;-0.76;100.00
55914;BME280;58179;48.776;9.124;2023-01-29T01:39:53;98397.94;;;-0.76;100.00
55914;BME280;58179;48.776;9.124;2023-01-29T01:42:22;98397.13;;;-0.76;100.00
55914;BME280;58179;48.776;9.124;2023-01-29T01:44:55;98397.94;;;-0.76;100.00
55914;BME280;58179;48.776;9.124;2023-01-29T01:47:28;98397.94;;;-0.76;100.00
55914;BME280;58179;48.776;9.124;2023-01-29T01:49:59;98390.94;;;-0.75;100.00
55914;BME280;58179;48.776;9.124;2023-01-29T01:52:28;98389.13;;;-0.75;100.00
55914;BME280;58179;48.776;9.124;2023-01-29T01:54:56;98391.72;;;-0.75;100.00
55914;BME280;58179;48.776;9.124;2023-01-29T01:57:25;98384.25;;;-0.78;100.00
55914;BME280;58179;48.776;9.124;2023-01-29T01:59:58;98383.75;;;-0.82;100.00
55914;BME280;58179;48.776;9.124;2023-01-29T02:02:26;98383.91;;;-0.83;100.00
55914;BME280;58179;48.776;9.124;2023-01-29T02:05:11;98393.78;;;-0.87;100.00
55914;BME280;58179;48.776;9.124;2023-01-29T02:07:57;98394.75;;;-0.88;100.00
55914;BME280;58179;48.776;9.124;2023-01-29T02:10:44;98390.53;;;-0.89;100.00
55914;BME280;58179;48.776;9.124;2023-01-29T02:13:11;98393.28;;;-0.90;100.00
55914;BME280;58179;48.776;9.124;2023-01-29T02:15:38;98396.88;;;-0.91;100.00
55914;BME280;58179;48.776;9.124;2023-01-29T02:18:06;98402.06;;;-0.91;100.00
55914;BME280;58179;48.776;9.124;2023-01-29T02:20:34;98408.22;;;-0.92;100.00
55914;BME280;58179;48.776;9.124;2023-01-29T02:23:25;98394.41;;;-0.93;100.00
55914;BME280;58179;48.776;9.124;2023-01-29T02:26:18;98404.47;;;-0.90;100.00
55914;BME280;58179;48.776;9.124;2023-01-29T02:28:55;98404.00;;;-0.93;100.00
55914;BME280;58179;48.776;9.124;2023-01-29T02:31:51;98410.16;;;-0.94;100.00
55914;BME280;58179;48.776;9.124;2023-01-29T02:34:28;98420.56;;;-0.94;100.00
55914;BME280;58179;48.776;9.124;2023-01-29T02:37:18;98404.00;;;-0.93;100.00
55914;BME280;58179;48.776;9.124;2023-01-29T02:39:52;98403.19;;;-0.94;100.00
55914;BME280;58179;48.776;9.124;2023-01-29T02:42:27;98392.25;;;-0.97;100.00
55914;BME280;58179;48.776;9.124;2023-01-29T02:45:03;98399.41;;;-0.99;100.00
55914;BME280;58179;48.776;9.124;2023-01-29T02:47:35;98398.59;;;-1.00;100.00
55914;BME280;58179;48.776;9.124;2023-01-29T02:50:14;98402.00;;;-0.99;100.00
55914;BME280;58179;48.776;9.124;2023-01-29T02:52:48;98401.88;;;-0.98;100.00
55914;BME280;58179;48.776;9.124;2023-01-29T02:55:23;98398.44;;;-0.98;100.00
55914;BME280;58179;48.776;9.124;2023-01-29T02:57:56;98393.03;;;-1.05;100.00
55914;BME280;58179;48.776;9.124;2023-01-29T03:00:29;98390.75;;;-1.08;100.00
55914;BME280;58179;48.776;9.124;2023-01-29T03:03:01;98388.16;;;-1.08;100.00
55914;BME280;58179;48.776;9.124;2023-01-29T03:05:32;98385.56;;;-1.08;100.00
55914;BME280;58179;48.776;9.124;2023-01-29T03:08:05;98395.81;;;-1.06;100.00
55914;BME280;58179;48.776;9.124;2023-01-29T03:10:38;98398.22;;;-1.05;100.00
55914;BME280;58179;48.776;9.124;2023-01-29T03:13:11;98400.03;;;-1.05;100.00
55914;BME280;58179;48.776;9.124;2023-01-29T03:15:44;98396.63;;;-1.06;100.00
55914;BME280;58179;48.776;9.124;2023-01-29T03:18:16;98395.63;;;-1.05;100.00
55914;BME280;58179;48.776;9.124;2023-01-29T03:20:46;98389.47;;;-1.04;100.00
55914;BME280;58179;48.776;9.124;2023-01-29T03:23:20;98379.06;;;-1.04;100.00
55914;BME280;58179;48.776;9.124;2023-01-29T03:25:50;98391.25;;;-1.04;100.00
55914;BME280;58179;48.776;9.124;2023-01-29T03:28:37;98392.06;;;-1.04;100.00
55914;BME280;58179;48.776;9.124;2023-01-29T03:31:25;98387.81;;;-1.05;100.00
55914;BME280;58179;48.776;9.124;2023-01-29T03:34:15;98394.50;;;-1.02;100.00
55914;BME280;58179;48.776;9.124;2023-01-29T03:36:53;98395.34;;;-1.02;100.00
55914;BME280;58179;48.776;9.124;2023-01-29T03:39:21;98395.34;;;-1.02;100.00
55914;BME280;58179;48.776;9.124;2023-01-29T03:41:55;98379.59;;;-1.00;100.00
55914;BME280;58179;48.776;9.124;2023-01-29T03:44:31;98389.31;;;-1.02;100.00
55914;BME280;58179;48.776;9.124;2023-01-29T03:47:11;98390.13;;;-1.02;100.00
55914;BME280;58179;48.776;9.124;2023-01-29T03:49:53;98385.59;;;-1.00;100.00
55914;BME280;58179;48.776;9.124;2023-01-29T03:52:26;98383.81;;;-0.99;100.00
55914;BME280;58179;48.776;9.124;2023-01-29T03:54:58;98389.31;;;-1.02;100.00
55914;BME280;58179;48.776;9.124;2023-01-29T03:57:32;98389.13;;;-1.09;100.00
55914;BME280;58179;48.776;9.124;2023-01-29T04:00:07;98397.06;;;-1.10;100.00
55914;BME280;58179;48.776;9.124;2023-01-29T04:02:42;98387.94;;;-1.14;100.00
55914;BME280;58179;48.776;9.124;2023-01-29T04:05:18;98394.78;;;-1.13;100.00
55914;BME280;58179;48.776;9.124;2023-01-29T04:07:44;98392.19;;;-1.13;100.00
55914;BME280;58179;48.776;9.124;2023-01-29T04:10:17;98397.38;;;-1.13;100.00
55914;BME280;58179;48.776;9.124;2023-01-29T04:12:49;98398.19;;;-1.13;100.00
55914;BME280;58179;48.776;9.124;2023-01-29T04:15:16;98396.56;;;-1.14;100.00
55914;BME280;58179;48.776;9.124;2023-01-29T04:17:50;98390.03;;;-1.18;100.00
55914;BME280;58179;48.776;9.124;2023-01-29T04:20:17;98393.59;;;-1.19;100.00
55914;BME280;58179;48.776;9.124;2023-01-29T04:22:46;98393.44;;;-1.18;100.00
55914;BME280;58179;48.776;9.124;2023-01-29T04:25:15;98395.69;;;-1.23;100.00
55914;BME280;58179;48.776;9.124;2023-01-29T04:27:51;98397.75;;;-1.26;100.00
55914;BME280;58179;48.776;9.124;2023-01-29T04:30:30;98398.56;;;-1.26;100.00
55914;BME280;58179;48.776;9.124;2023-01-29T04:33:13;98399.91;;;-1.22;100.00
55914;BME280;58179;48.776;9.124;2023-01-29T04:36:00;98401.69;;;-1.22;100.00
55914;BME280;58179;48.776;9.124;2023-01-29T04:38:46;98402.50;;;-1.22;100.00
55914;BME280;58179;48.776;9.124;2023-01-29T04:41:21;98398.28;;;-1.23;100.00
55914;BME280;58179;48.776;9.124;2023-01-29T04:43:59;98397.31;;;-1.22;100.00
55914;BME280;58179;48.776;9.124;2023-01-29T04:46:34;98386.94;;;-1.22;100.00
55914;BME280;58179;48.776;9.124;2023-01-29T04:49:14;98396.19;;;-1.19;100.00
55914;BME280;58179;48.776;9.124;2023-01-29T04:51:49;98394.53;;;-1.20;100.00
55914;BME280;58179;48.776;9.124;2023-01-29T04:54:25;98393.09;;;-1.23;100.00
55914;BME280;58179;48.776;9.124;2023-01-29T04:56:57;98395.69;;;-1.23;100.00
55914;BME280;58179;48.776;9.124;2023-01-29T04:59:30;98389.69;;;-1.23;100.00
55914;BME280;58179;48.776;9.124;2023-01-29T05:02:00;98392.28;;;-1.23;100.00
55914;BME280;58179;48.776;9.124;2023-01-29T05:04:29;98396.66;;;-1.24;100.00
55914;BME280;58179;48.776;9.124;2023-01-29T05:07:00;98400.06;;;-1.23;100.00
55914;BME280;58179;48.776;9.124;2023-01-29T05:09:27;98394.72;;;-1.22;100.00
55914;BME280;58179;48.776;9.124;2023-01-29T05:11:54;98401.38;;;-1.19;100.00
55914;BME280;58179;48.776;9.124;2023-01-29T05:14:21;98397.16;;;-1.20;100.00
55914;BME280;58179;48.776;9.124;2023-01-29T05:16:51;98399.91;;;-1.22;100.00
55914;BME280;58179;48.776;9.124;2023-01-29T05:19:19;98393.09;;;-1.23;100.00
55914;BME280;58179;48.776;9.124;2023-01-29T05:21:48;98398.44;;;-1.24;100.00
55914;BME280;58179;48.776;9.124;2023-01-29T05:24:16;98393.22;;;-1.24;100.00
55914;BME280;58179;48.776;9.124;2023-01-29T05:26:44;98403.34;;;-1.21;100.00
55914;BME280;58179;48.776;9.124;2023-01-29T05:29:30;98399.75;;;-1.20;100.00
55914;BME280;58179;48.776;9.124;2023-01-29T05:31:56;98403.97;;;-1.19;100.00
55914;BME280;58179;48.776;9.124;2023-01-29T05:34:22;98405.94;;;-1.21;100.00
55914;BME280;58179;48.776;9.124;2023-01-29T05:36:49;98412.22;;;-1.24;100.00
55914;BME280;58179;48.776;9.124;2023-01-29T05:39:16;98412.22;;;-1.24;100.00
55914;BME280;58179;48.776;9.124;2023-01-29T05:41:42;98406.22;;;-1.24;100.00
55914;BME280;58179;48.776;9.124;2023-01-29T05:44:09;98405.25;;;-1.23;100.00
55914;BME280;58179;48.776;9.124;2023-01-29T05:46:35;98403.47;;;-1.23;100.00
55914;BME280;58179;48.776;9.124;2023-01-29T05:49:01;98396.66;;;-1.24;100.00
55914;BME280;58179;48.776;9.124;2023-01-29T05:51:27;98383.00;;;-1.26;100.00
55914;BME280;58179;48.776;9.124;2023-01-29T05:53:55;98371.78;;;-1.26;100.00
55914;BME280;58179;48.776;9.124;2023-01-29T05:56:20;98360.09;;;-1.30;100.00
55914;BME280;58179;48.776;9.124;2023-01-29T05:58:46;98344.19;;;-1.27;100.00
55914;BME280;58179;48.776;9.124;2023-01-29T06:01:16;98351.91;;;-1.35;100.00
55914;BME280;58179;48.776;9.124;2023-01-29T06:03:42;98351.06;;;-1.44;100.00
55914;BME280;58179;48.776;9.124;2023-01-29T06:06:08;98364.19;;;-1.45;100.00
55914;BME280;58179;48.776;9.124;2023-01-29T06:08:35;98367.47;;;-1.43;100.00
55914;BME280;58179;48.776;9.124;2023-01-29T06:11:02;98375.06;;;-1.42;100.00
55914;BME280;58179;48.776;9.124;2023-01-29T06:13:29;98374.13;;;-1.41;100.00
55914;BME280;58179;48.776;9.124;2023-01-29T06:15:55;98370.91;;;-1.35;100.00
55914;BME280;58179;48.776;9.124;2023-01-29T06:18:21;98373.50;;;-1.35;100.00
55914;BME280;58179;48.776;9.124;2023-01-29T06:20:47;98379.50;;;-1.34;100.00
55914;BME280;58179;48.776;9.124;2023-01-29T06:23:13;98376.91;;;-1.34;100.00
55914;BME280;58179;48.776;9.124;2023-01-29T06:25:38;98375.13;;;-1.34;100.00
55914;BME280;58179;48.776;9.124;2023-01-29T06:28:06;98381.16;;;-1.33;100.00
55914;BME280;58179;48.776;9.124;2023-01-29T06:30:32;98386.19;;;-1.32;100.00
55914;BME280;58179;48.776;9.124;2023-01-29T06:32:58;98387.84;;;-1.31;100.00
55914;BME280;58179;48.776;9.124;2023-01-29T06:35:27;98387.69;;;-1.29;100.00
55914;BME280;58179;48.776;9.124;2023-01-29T06:37:53;98386.88;;;-1.30;100.00
55914;BME280;58179;48.776;9.124;2023-01-29T06:40:19;98388.66;;;-1.30;100.00
55914;BME280;58179;48.776;9.124;2023-01-29T06:42:45;98380.03;;;-1.31;100.00
55914;BME280;58179;48.776;9.124;2023-01-29T06:45:12;98374.84;;;-1.31;100.00
55914;BME280;58179;48.776;9.124;2023-01-29T06:47:38;98386.06;;;-1.30;100.00
55914;BME280;58179;48.776;9.124;2023-01-29T06:50:05;98381.00;;;-1.32;100.00
55914;BME280;58179;48.776;9.124;2023-01-29T06:52:31;98385.19;;;-1.39;100.00
55914;BME280;58179;48.776;9.124;2023-01-29T06:54:57;98383.69;;;-1.41;100.00
55914;BME280;58179;48.776;9.124;2023-01-29T06:57:23;98385.72;;;-1.53;100.00
55914;BME280;58179;48.776;9.124;2023-01-29T06:59:49;98394.75;;;-1.57;100.00
55914;BME280;58179;48.776;9.124;2023-01-29T07:02:16;98395.28;;;-1.53;100.00
55914;BME280;58179;48.776;9.124;2023-01-29T07:04:42;98395.63;;;-1.48;100.00
55914;BME280;58179;48.776;9.124;2023-01-29T07:07:08;98397.94;;;-1.45;100.00
55914;BME280;58179;48.776;9.124;2023-01-29T07:09:39;98392.91;;;-1.47;100.00
55914;BME280;58179;48.776;9.124;2023-01-29T07:12:05;98390.44;;;-1.48;100.00
55914;BME280;58179;48.776;9.124;2023-01-29T07:14:31;98387.72;;;-1.47;100.00
55914;BME280;58179;48.776;9.124;2023-01-29T07:16:57;98393.25;;;-1.42;100.00
55914;BME280;58179;48.776;9.124;2023-01-29T07:19:24;98389.56;;;-1.39;100.00
55914;BME280;58179;48.776;9.124;2023-01-29T07:21:50;98395.28;;;-1.36;100.00
55914;BME280;58179;48.776;9.124;2023-01-29T07:24:16;98401.09;;;-1.34;100.00
55914;BME280;58179;48.776;9.124;2023-01-29T07:26:43;98399.47;;;-1.35;100.00
55914;BME280;58179;48.776;9.124;2023-01-29T07:29:09;98401.63;;;-1.30;100.00
55914;BME280;58179;48.776;9.124;2023-01-29T07:31:35;98405.88;;;-1.29;100.00
55914;BME280;58179;48.776;9.124;2023-01-29T07:34:01;98402.94;;;-1.26;100.00
55914;BME280;58179;48.776;9.124;2023-01-29T07:36:29;98405.13;;;-1.22;100.00
55914;BME280;58179;48.776;9.124;2023-01-29T07:38:55;98417.13;;;-1.21;100.00
55914;BME280;58179;48.776;9.124;2023-01-29T07:41:21;98415.31;;;-1.20;100.00
55914;BME280;58179;48.776;9.124;2023-01-29T07:43:47;98416.81;;;-1.18;100.00
55914;BME280;58179;48.776;9.124;2023-01-29T07:46:13;98421.88;;;-1.16;100.00
55914;BME280;58179;48.776;9.124;2023-01-29T07:48:39;98425.81;;;-1.30;100.00
55914;BME280;58179;48.776;9.124;2023-01-29T07:51:05;98428.09;;;-1.27;100.00
55914;BME280;58179;48.776;9.124;2023-01-29T07:53:35;98432.88;;;-1.22;100.00
55914;BME280;58179;48.776;9.124;2023-01-29T07:56:05;98427.06;;;-1.16;100.00
55914;BME280;58179;48.776;9.124;2023-01-29T07:58:34;98431.66;;;-1.10;100.00
55914;BME280;58179;48.776;9.124;2023-01-29T08:01:19;98436.41;;;-1.05;100.00
55914;BME280;58179;48.776;9.124;2023-01-29T08:03:56;98429.94;;;-1.01;100.00
55914;BME280;58179;48.776;9.124;2023-01-29T08:06:31;98431.56;;;-1.00;100.00
55914;BME280;58179;48.776;9.124;2023-01-29T08:09:13;98427.19;;;-1.00;100.00
55914;BME280;58179;48.776;9.124;2023-01-29T08:11:44;98431.25;;;-0.97;100.00
55914;BME280;58179;48.776;9.124;2023-01-29T08:14:13;98427.84;;;-0.98;100.00
55914;BME280;58179;48.776;9.124;2023-01-29T08:16:39;98429.84;;;-0.92;100.00
55914;BME280;58179;48.776;9.124;2023-01-29T08:19:05;98427.88;;;-0.90;100.00
55914;BME280;58179;48.776;9.124;2023-01-29T08:21:31;98434.56;;;-0.87;100.00
55914;BME280;58179;48.776;9.124;2023-01-29T08:23:57;98434.28;;;-0.84;100.00
55914;BME280;58179;48.776;9.124;2023-01-29T08:26:24;98447.25;;;-0.84;100.00
55914;BME280;58179;48.776;9.124;2023-01-29T08:28:52;98451.03;;;-0.79;100.00
55914;BME280;58179;48.776;9.124;2023-01-29T08:31:19;98450.22;;;-0.79;100.00
55914;BME280;58179;48.776;9.124;2023-01-29T08:33:48;98449.09;;;-0.76;100.00
55914;BME280;58179;48.776;9.124;2023-01-29T08:36:14;98447.97;;;-0.74;100.00
55914;BME280;58179;48.776;9.124;2023-01-29T08:38:40;98450.25;;;-0.71;100.00
55914;BME280;58179;48.776;9.124;2023-01-29T08:41:07;98451.75;;;-0.68;100.00
55914;BME280;58179;48.776;9.124;2023-01-29T08:43:35;98452.56;;;-0.68;100.00
55914;BME280;58179;48.776;9.124;2023-01-29T08:46:04;98453.53;;;-0.69;100.00
55914;BME280;58179;48.776;9.124;2023-01-29T08:48:30;98461.00;;;-0.66;100.00
55914;BME280;58179;48.776;9.124;2023-01-29T08:50:57;98461.81;;;-0.65;100.00
55914;BME280;58179;48.776;9.124;2023-01-29T08:53:24;98460.84;;;-0.64;100.00
55914;BME280;58179;48.776;9.124;2023-01-29T08:55:51;98460.84;;;-0.64;100.00
55914;BME280;58179;48.776;9.124;2023-01-29T08:58:17;98463.59;;;-0.66;100.00
55914;BME280;58179;48.776;9.124;2023-01-29T09:00:44;98460.94;;;-0.74;100.00
55914;BME280;58179;48.776;9.124;2023-01-29T09:03:10;98446.69;;;-0.70;100.00
55914;BME280;58179;48.776;9.124;2023-01-29T09:05:38;98450.47;;;-0.64;100.00
55914;BME280;58179;48.776;9.124;2023-01-29T09:32:48;98473.44;;;-0.18;100.00
55914;BME280;58179;48.776;9.124;2023-01-29T09:35:14;98473.13;;;-0.15;100.00
55914;BME280;58179;48.776;9.124;2023-01-29T09:37:40;98464.88;;;-0.10;100.00
55914;BME280;58179;48.776;9.124;2023-01-29T09:40:08;98469.44;;;-0.04;100.00
55914;BME280;58179;48.776;9.124;2023-01-29T09:42:47;98462.28;;;-0.02;100.00
55914;BME280;58179;48.776;9.124;2023-01-29T09:45:19;98465.56;;;0.00;100.00
55914;BME280;58179;48.776;9.124;2023-01-29T09:47:50;98457.28;;;0.05;100.00
55914;BME280;58179;48.776;9.124;2023-01-29T09:50:22;98454.69;;;0.13;100.00
55914;BME280;58179;48.776;9.124;2023-01-29T09:52:55;98451.97;;;0.22;100.00
55914;BME280;58179;48.776;9.124;2023-01-29T09:55:26;98438.44;;;0.27;100.00
55914;BME280;58179;48.776;9.124;2023-01-29T09:57:56;98429.03;;;0.34;100.00
55914;BME280;58179;48.776;9.124;2023-01-29T10:00:25;98421.53;;;0.39;100.00
55914;BME280;58179;48.776;9.124;2023-01-29T10:03:17;98414.22;;;0.51;100.00
55914;BME280;58179;48.776;9.124;2023-01-29T10:06:10;98409.78;;;0.11;100.00
55914;BME280;58179;48.776;9.124;2023-01-29T10:09:28;98407.69;;;0.47;100.00
55914;BME280;58179;48.776;9.124;2023-01-29T10:12:10;98402.19;;;0.90;100.00
55914;BME280;58179;48.776;9.124;2023-01-29T10:14:50;98395.56;;;1.35;100.00
55914;BME280;58179;48.776;9.124;2023-01-29T10:17:44;98388.56;;;1.27;100.00
55914;BME280;58179;48.776;9.124;2023-01-29T10:20:37;98391.94;;;1.36;100.00
55914;BME280;58179;48.776;9.124;2023-01-29T10:23:17;98395.94;;;1.07;100.00
55914;BME280;58179;48.776;9.124;2023-01-29T10:25:46;98388.75;;;1.26;100.00
55914;BME280;58179;48.776;9.124;2023-01-29T10:28:17;98392.59;;;1.38;100.00
55914;BME280;58179;48.776;9.124;2023-01-29T10:30:48;98397.78;;;1.46;100.00
55914;BME280;58179;48.776;9.124;2023-01-29T10:33:24;98408.06;;;1.47;100.00
55914;BME280;58179;48.776;9.124;2023-01-29T10:35:59;98401.13;;;1.71;100.00
55914;BME280;58179;48.776;9.124;2023-01-29T10:38:37;98395.34;;;1.83;100.00
55914;BME280;58179;48.776;9.124;2023-01-29T10:41:27;98395.03;;;1.86;100.00
55914;BME280;58179;48.776;9.124;2023-01-29T10:44:13;98398.41;;;1.95;100.00
55914;BME280;58179;48.776;9.124;2023-01-29T10:47:02;98404.63;;;1.94;100.00
55914;BME280;58179;48.776;9.124;2023-01-29T10:49:52;98413.75;;;2.21;100.00
55914;BME280;58179;48.776;9.124;2023-01-29T10:52:41;98404.78;;;2.23;100.00
55914;BME280;58179;48.776;9.124;2023-01-29T10:55:27;98400.38;;;1.93;100.00
55914;BME280;58179;48.776;9.124;2023-01-29T10:58:03;98389.44;;;1.89;100.00
55914;BME280;58179;48.776;9.124;2023-01-29T11:00:35;98396.94;;;1.92;100.00
55914;BME280;58179;48.776;9.124;2023-01-29T11:03:14;98398.88;;;1.99;100.00
55914;BME280;58179;48.776;9.124;2023-01-29T11:05:46;98399.25;;;1.87;100.00
55914;BME280;58179;48.776;9.124;2023-01-29T11:08:20;98397.81;;;1.85;100.00
55914;BME280;58179;48.776;9.124;2023-01-29T11:10:56;98397.75;;;1.93;100.00
55914;BME280;58179;48.776;9.124;2023-01-29T11:13:30;98405.47;;;1.86;100.00
55914;BME280;58179;48.776;9.124;2023-01-29T11:15:57;98403.97;;;1.92;100.00
55914;BME280;58179;48.776;9.124;2023-01-29T11:18:24;98399.38;;;1.94;100.00
55914;BME280;58179;48.776;9.124;2023-01-29T11:21:01;98383.84;;;2.01;100.00
55914;BME280;58179;48.776;9.124;2023-01-29T11:23:30;98389.88;;;2.01;100.00
55914;BME280;58179;48.776;9.124;2023-01-29T11:25:59;98383.66;;;1.79;100.00
55914;BME280;58179;48.776;9.124;2023-01-29T11:28:36;98384.13;;;1.36;100.00
55914;BME280;58179;48.776;9.124;2023-01-29T11:31:03;98372.84;;;0.88;100.00
55914;BME280;58179;48.776;9.124;2023-01-29T11:33:39;98367.81;;;0.78;100.00
55914;BME280;58179;48.776;9.124;2023-01-29T11:36:30;98356.53;;;1.02;100.00
55914;BME280;58179;48.776;9.124;2023-01-29T11:39:17;98353.75;;;1.04;100.00
55914;BME280;58179;48.776;9.124;2023-01-29T11:41:47;98359.53;;;1.30;100.00
55914;BME280;58179;48.776;9.124;2023-01-29T11:44:21;98360.59;;;1.52;100.00
55914;BME280;58179;48.776;9.124;2023-01-29T11:46:48;98344.56;;;1.63;100.00
55914;BME280;58179;48.776;9.124;2023-01-29T11:49:27;98350.69;;;1.78;100.00
55914;BME280;58179;48.776;9.124;2023-01-29T11:51:55;98351.22;;;1.97;100.00
55914;BME280;58179;48.776;9.124;2023-01-29T11:54:28;98339.16;;;2.18;100.00
55914;BME280;58179;48.776;9.124;2023-01-29T11:56:56;98353.56;;;2.37;100.00
55914;BME280;58179;48.776;9.124;2023-01-29T11:59:39;98348.03;;;2.55;100.00
55914;BME280;58179;48.776;9.124;2023-01-29T12:02:31;98352.44;;;2.54;100.00
55914;BME280;58179;48.776;9.124;2023-01-29T12:05:05;98342.34;;;2.51;100.00
55914;BME280;58179;48.776;9.124;2023-01-29T12:07:32;98332.59;;;2.45;100.00
55914;BME280;58179;48.776;9.124;2023-01-29T12:10:00;98324.06;;;2.66;100.00
55914;BME280;58179;48.776;9.124;2023-01-29T12:12:34;98309.44;;;2.19;100.00
55914;BME280;58179;48.776;9.124;2023-01-29T12:15:18;98306.94;;;2.26;100.00
55914;BME280;58179;48.776;9.124;2023-01-29T12:17:54;98297.44;;;2.33;100.00
55914;BME280;58179;48.776;9.124;2023-01-29T12:20:29;98286.06;;;2.41;100.00
55914;BME280;58179;48.776;9.124;2023-01-29T12:23:03;98288.28;;;2.52;100.00
55914;BME280;58179;48.776;9.124;2023-01-29T12:25:48;98284.56;;;2.46;100.00
55914;BME280;58179;48.776;9.124;2023-01-29T12:28:29;98278.44;;;2.39;100.00
55914;BME280;58179;48.776;9.124;2023-01-29T12:31:16;98272.78;;;2.13;100.00
55914;BME280;58179;48.776;9.124;2023-01-29T12:33:50;98253.91;;;2.25;100.00
55914;BME280;58179;48.776;9.124;2023-01-29T12:36:23;98246.78;;;2.34;100.00
55914;BME280;58179;48.776;9.124;2023-01-29T12:38:51;98237.53;;;2.31;100.00
55914;BME280;58179;48.776;9.124;2023-01-29T12:41:29;98230.22;;;2.42;100.00
55914;BME280;58179;48.776;9.124;2023-01-29T12:43:58;98236.22;;;2.13;100.00
55914;BME280;58179;48.776;9.124;2023-01-29T12:46:29;98235.41;;;2.12;100.00
55914;BME280;58179;48.776;9.124;2023-01-29T12:49:02;98227.44;;;2.43;100.00
55914;BME280;58179;48.776;9.124;2023-01-29T12:51:33;98225.91;;;2.63;100.00
55914;BME280;58179;48.776;9.124;2023-01-29T12:54:05;98226.59;;;3.16;100.00
55914;BME280;58179;48.776;9.124;2023-01-29T12:56:37;98225.13;;;3.64;100.00
55914;BME280;58179;48.776;9.124;2023-01-29T12:59:15;98221.41;;;3.73;100.00
55914;BME280;58179;48.776;9.124;2023-01-29T13:01:48;98224.06;;;3.59;100.00
55914;BME280;58179;48.776;9.124;2023-01-29T13:04:23;98219.66;;;3.80;100.00
55914;BME280;58179;48.776;9.124;2023-01-29T13:06:55;98215.91;;;3.89;100.00
55914;BME280;58179;48.776;9.124;2023-01-29T13:09:27;98214.06;;;4.11;100.00
55914;BME280;58179;48.776;9.124;2023-01-29T13:12:00;98203.41;;;3.92;100.00
55914;BME280;58179;48.776;9.124;2023-01-29T13:14:45;98204.72;;;3.38;100.00
55914;BME280;58179;48.776;9.124;2023-01-29T13:17:18;98200.50;;;3.37;100.00
55914;BME280;58179;48.776;9.124;2023-01-29T13:19:51;98193.69;;;3.22;100.00
55914;BME280;58179;48.776;9.124;2023-01-29T13:22:22;98188.22;;;3.80;100.00
55914;BME280;58179;48.776;9.124;2023-01-29T13:24:50;98197.63;;;3.96;100.00
55914;BME280;58179;48.776;9.124;2023-01-29T13:27:24;98193.84;;;4.26;100.00
55914;BME280;58179;48.776;9.124;2023-01-29T13:29:51;98191.41;;;4.25;100.00
55914;BME280;58179;48.776;9.124;2023-01-29T13:32:22;98188.91;;;4.17;100.00
55914;BME280;58179;48.776;9.124;2023-01-29T13:34:50;98195.25;;;3.80;100.00
55914;BME280;58179;48.776;9.124;2023-01-29T13:37:23;98192.03;;;3.57;100.00
55914;BME280;58179;48.776;9.124;2023-01-29T13:39:53;98191.44;;;3.40;100.00
55914;BME280;58179;48.776;9.124;2023-01-29T13:42:25;98197.41;;;2.98;100.00